createdAt,value
2022-09-15T00:01:01.065Z,78.65
2022-09-15T00:03:28.672Z,78.81
2022-09-15T00:05:56.018Z,78.79
2022-09-15T00:08:23.995Z,78.66
2022-09-15T00:10:53.604Z,78.62
2022-09-15T00:13:21.843Z,78.69
2022-09-15T00:15:49.160Z,78.70
2022-09-15T00:18:16.343Z,78.60
2022-09-15T00:20:44.746Z,78.77
2022-09-15T00:23:13.339Z,78.54
2022-09-15T00:25:51.690Z,78.52
2022-09-15T00:28:21.704Z,78.55
2022-09-15T00:30:49.685Z,78.77
2022-09-15T00:33:17.769Z,78.80
2022-09-15T00:35:47.263Z,78.63
2022-09-15T00:38:15.500Z,78.72
2022-09-15T00:41:01.394Z,78.78
2022-09-15T00:43:48.370Z,78.93
2022-09-15T00:46:17.677Z,79.30
2022-09-15T00:48:50.652Z,79.28
2022-09-15T00:51:22.823Z,79.28
2022-09-15T00:53:51.026Z,79.26
2022-09-15T00:56:19.835Z,79.09
2022-09-15T00:58:55.982Z,79.15
2022-09-15T01:01:26.787Z,79.06
2022-09-15T01:03:54.491Z,78.89
2022-09-15T01:06:30.895Z,79.13
2022-09-15T01:09:19.408Z,79.01
2022-09-15T01:11:46.254Z,79.31
2022-09-15T01:14:13.218Z,79.15
2022-09-15T01:16:53.676Z,79.15
2022-09-15T01:19:37.406Z,78.92
2022-09-15T01:22:41.858Z,79.08
2022-09-15T01:25:08.591Z,78.90
2022-09-15T01:27:56.832Z,79.05
2022-09-15T01:30:24.627Z,78.89
2022-09-15T01:33:09.692Z,78.60
2022-09-15T01:35:52.273Z,78.52
2022-09-15T01:38:36.302Z,78.37
2022-09-15T01:41:09.697Z,78.42
2022-09-15T01:43:43.647Z,78.30
2022-09-15T01:46:13.106Z,78.60
2022-09-15T01:48:42.098Z,78.58
2022-09-15T01:51:09.856Z,78.75
2022-09-15T01:53:36.607Z,78.72
2022-09-15T01:56:08.681Z,78.58
2022-09-15T01:58:37.162Z,78.70
2022-09-15T02:01:14.081Z,78.56
2022-09-15T02:03:51.148Z,78.60
2022-09-15T02:06:53.409Z,78.46
2022-09-15T02:09:24.787Z,78.93
2022-09-15T02:12:17.794Z,78.59
2022-09-15T02:14:56.030Z,78.80
2022-09-15T02:17:25.438Z,78.68
2022-09-15T02:20:02.786Z,78.69
2022-09-15T02:22:35.534Z,78.66
2022-09-15T02:25:08.385Z,78.54
2022-09-15T02:27:40.572Z,78.58
2022-09-15T02:30:11.849Z,78.90
2022-09-15T02:32:54.476Z,78.56
2022-09-15T02:35:25.004Z,78.74
2022-09-15T02:37:52.772Z,78.60
2022-09-15T02:40:19.922Z,78.80
2022-09-15T02:42:56.032Z,78.76
2022-09-15T02:45:27.079Z,78.50
2022-09-15T02:47:54.022Z,78.55
2022-09-15T02:50:21.020Z,78.47
2022-09-15T02:52:47.880Z,78.74
2022-09-15T02:55:16.478Z,78.84
2022-09-15T02:57:43.365Z,78.51
2022-09-15T03:00:13.859Z,78.77
2022-09-15T03:02:42.378Z,78.67
2022-09-15T03:05:10.073Z,78.52
2022-09-15T03:07:38.156Z,78.61
2022-09-15T03:10:06.831Z,78.82
2022-09-15T03:12:41.645Z,78.57
2022-09-15T03:15:10.882Z,78.66
2022-09-15T03:17:39.700Z,78.32
2022-09-15T03:20:08.090Z,78.59
2022-09-15T03:22:35.472Z,78.61
2022-09-15T03:25:05.779Z,78.61
2022-09-15T03:27:33.498Z,78.47
2022-09-15T03:30:00.688Z,78.65
2022-09-15T03:32:27.867Z,78.52
2022-09-15T03:34:58.338Z,78.77
2022-09-15T03:37:26.160Z,78.58
2022-09-15T03:39:53.328Z,78.53
2022-09-15T03:42:20.882Z,78.75
2022-09-15T03:44:47.802Z,78.64
2022-09-15T03:47:14.646Z,78.61
2022-09-15T03:49:41.417Z,78.78
2022-09-15T03:52:08.378Z,78.80
2022-09-15T03:54:35.710Z,78.89
2022-09-15T03:57:03.465Z,78.92
2022-09-15T03:59:30.245Z,78.60
2022-09-15T04:01:57.375Z,78.70
2022-09-15T04:04:24.425Z,78.38
2022-09-15T04:06:51.351Z,78.63
2022-09-15T04:09:20.278Z,78.54
2022-09-15T04:11:47.883Z,78.52
2022-09-15T04:14:14.716Z,78.50
2022-09-15T04:16:41.674Z,78.40
2022-09-15T04:19:08.712Z,78.32
2022-09-15T04:21:35.587Z,78.48
2022-09-15T04:24:04.869Z,78.32
2022-09-15T04:26:36.915Z,78.31
2022-09-15T04:29:05.618Z,78.34
2022-09-15T04:31:33.852Z,78.26
2022-09-15T04:34:00.948Z,78.13
2022-09-15T04:36:29.336Z,78.41
2022-09-15T04:38:56.910Z,77.97
2022-09-15T04:41:24.633Z,78.04
2022-09-15T04:43:51.899Z,78.17
2022-09-15T04:46:19.133Z,78.01
2022-09-15T04:48:48.988Z,77.89
2022-09-15T04:51:19.321Z,77.96
2022-09-15T04:53:48.949Z,77.85
2022-09-15T04:56:21.605Z,77.73
2022-09-15T04:58:51.182Z,77.74
2022-09-15T05:01:29.575Z,77.78
2022-09-15T05:03:56.713Z,77.83
2022-09-15T05:06:27.616Z,77.67
2022-09-15T05:08:57.468Z,77.75
2022-09-15T05:11:25.601Z,77.90
2022-09-15T05:13:52.860Z,77.82
2022-09-15T05:16:22.632Z,77.98
2022-09-15T05:18:51.327Z,77.88
2022-09-15T05:21:20.147Z,77.74
2022-09-15T05:23:48.109Z,77.75
2022-09-15T05:26:17.520Z,77.86
2022-09-15T05:28:45.051Z,77.91
2022-09-15T05:31:14.315Z,77.74
2022-09-15T05:33:41.239Z,77.70
2022-09-15T05:36:08.244Z,77.62
2022-09-15T05:38:35.564Z,77.52
2022-09-15T05:41:08.033Z,77.67
2022-09-15T05:43:36.330Z,77.59
2022-09-15T05:46:04.089Z,77.48
2022-09-15T05:48:31.709Z,77.44
2022-09-15T05:50:58.830Z,77.42
2022-09-15T05:53:26.379Z,77.50
2022-09-15T05:55:57.910Z,77.35
2022-09-15T05:58:25.914Z,77.35
2022-09-15T06:00:53.611Z,77.40
2022-09-15T06:03:21.522Z,77.47
2022-09-15T06:05:48.444Z,77.55
2022-09-15T06:08:15.891Z,77.53
2022-09-15T06:10:42.703Z,77.63
2022-09-15T06:13:09.496Z,77.50
2022-09-15T06:15:36.364Z,77.65
2022-09-15T06:18:03.223Z,77.58
2022-09-15T06:20:30.046Z,77.68
2022-09-15T06:22:57.090Z,77.59
2022-09-15T06:25:23.949Z,77.61
2022-09-15T06:27:51.047Z,77.52
2022-09-15T06:30:18.107Z,77.63
2022-09-15T06:32:48.280Z,77.74
2022-09-15T06:35:15.806Z,77.74
2022-09-15T06:37:42.578Z,77.67
2022-09-15T06:40:10.390Z,77.74
2022-09-15T06:42:38.007Z,77.38
2022-09-15T06:45:05.064Z,77.45
2022-09-15T06:47:34.207Z,77.22
2022-09-15T06:50:01.405Z,77.22
2022-09-15T06:52:28.409Z,77.32
2022-09-15T06:54:55.349Z,77.19
2022-09-15T06:57:22.122Z,77.06
2022-09-15T06:59:48.923Z,77.24
2022-09-15T07:02:18.411Z,77.20
2022-09-15T07:04:45.356Z,77.18
2022-09-15T07:07:12.253Z,76.99
2022-09-15T07:09:41.274Z,76.91
2022-09-15T07:12:08.503Z,76.78
2022-09-15T07:14:35.361Z,76.64
2022-09-15T07:17:03.023Z,76.80
2022-09-15T07:19:29.816Z,76.56
2022-09-15T07:21:56.605Z,76.79
2022-09-15T07:24:23.372Z,76.53
2022-09-15T07:26:50.186Z,76.34
2022-09-15T07:29:16.998Z,76.39
2022-09-15T07:31:43.940Z,76.42
2022-09-15T07:34:10.757Z,76.59
2022-09-15T07:36:37.669Z,76.41
2022-09-15T07:39:05.581Z,76.21
2022-09-15T07:41:33.423Z,76.40
2022-09-15T07:44:00.781Z,76.25
2022-09-15T07:46:31.119Z,76.33
2022-09-15T07:48:58.131Z,76.18
2022-09-15T07:51:25.922Z,76.12
2022-09-15T07:53:53.645Z,76.17
2022-09-15T07:56:21.838Z,76.06
2022-09-15T07:58:49.294Z,76.13
2022-09-15T08:01:18.152Z,75.90
2022-09-15T08:03:48.980Z,76.08
2022-09-15T08:06:18.375Z,75.98
2022-09-15T08:08:45.337Z,76.24
2022-09-15T08:11:18.922Z,76.12
2022-09-15T08:13:51.150Z,76.05
2022-09-15T08:16:21.286Z,75.89
2022-09-15T08:18:48.492Z,75.97
2022-09-15T08:21:18.280Z,75.89
2022-09-15T08:23:45.186Z,75.64
2022-09-15T08:26:14.375Z,75.74
2022-09-15T08:28:44.409Z,75.83
2022-09-15T08:31:13.843Z,75.69
2022-09-15T08:33:45.443Z,75.43
2022-09-15T08:36:13.647Z,75.39
2022-09-15T08:38:41.932Z,74.99
2022-09-15T08:41:22.727Z,75.07
2022-09-15T08:44:08.562Z,74.99
2022-09-15T08:47:12.431Z,75.09
2022-09-15T08:50:07.964Z,75.07
2022-09-15T08:52:40.343Z,74.88
2022-09-15T08:55:38.783Z,74.74
2022-09-15T08:58:06.439Z,74.85
2022-09-15T09:00:33.666Z,74.85
2022-09-15T09:03:03.429Z,74.65
2022-09-15T09:05:57.756Z,74.24
2022-09-15T09:09:00.308Z,74.06
2022-09-15T09:11:48.200Z,73.92
2022-09-15T09:14:24.394Z,74.33
2022-09-15T09:17:07.987Z,74.30
2022-09-15T09:19:56.961Z,74.23
2022-09-15T09:22:27.775Z,74.22
2022-09-15T09:24:58.466Z,74.99
2022-09-15T09:27:34.477Z,74.52
2022-09-15T09:30:11.064Z,74.10
2022-09-15T09:32:45.484Z,74.07
2022-09-15T09:35:42.206Z,73.88
2022-09-15T09:38:10.721Z,73.88
2022-09-15T09:40:41.192Z,74.00
2022-09-15T09:43:08.931Z,73.88
2022-09-15T09:45:36.029Z,73.85
2022-09-15T09:48:12.028Z,73.63
2022-09-15T09:50:44.528Z,73.76
2022-09-15T09:53:31.241Z,73.14
2022-09-15T09:56:18.342Z,73.26
2022-09-15T09:58:45.439Z,72.91
2022-09-15T10:01:16.517Z,73.25
2022-09-15T10:03:45.404Z,73.64
2022-09-15T10:06:30.900Z,73.38
2022-09-15T10:09:05.518Z,73.72
2022-09-15T10:11:52.744Z,73.21
2022-09-15T10:14:29.392Z,73.18
2022-09-15T10:17:15.803Z,72.88
2022-09-15T10:19:56.866Z,73.03
2022-09-15T10:22:29.010Z,73.13
2022-09-15T10:24:56.420Z,73.01
2022-09-15T10:27:27.829Z,72.95
2022-09-15T10:29:55.935Z,73.30
2022-09-15T10:32:29.777Z,73.47
2022-09-15T10:35:04.979Z,73.21
2022-09-15T10:37:48.238Z,73.20
2022-09-15T10:40:34.647Z,73.17
2022-09-15T10:43:28.271Z,72.29
2022-09-15T10:46:04.202Z,72.61
2022-09-15T10:48:40.541Z,72.28
2022-09-15T10:51:16.535Z,72.43
2022-09-15T10:53:58.402Z,72.49
2022-09-15T10:56:30.713Z,72.85
2022-09-15T10:59:15.950Z,72.99
2022-09-15T11:02:13.301Z,73.36
2022-09-15T11:04:42.882Z,73.36
2022-09-15T11:07:38.299Z,73.02
2022-09-15T11:10:19.686Z,73.07
2022-09-15T11:12:52.821Z,73.46
2022-09-15T11:15:28.193Z,73.40
2022-09-15T11:19:02.351Z,73.52
2022-09-15T11:21:40.685Z,73.50
2022-09-15T11:24:32.185Z,73.37
2022-09-15T11:27:19.112Z,73.02
2022-09-15T11:30:06.832Z,73.21
2022-09-15T11:32:55.631Z,73.09
2022-09-15T11:35:39.747Z,73.17
2022-09-15T11:38:40.703Z,72.87
2022-09-15T11:41:35.647Z,72.88
2022-09-15T11:44:16.179Z,73.46
2022-09-15T11:47:08.020Z,72.97
2022-09-15T11:49:55.354Z,72.85
2022-09-15T11:52:34.294Z,73.12
2022-09-15T11:55:09.875Z,73.05
2022-09-15T11:57:44.776Z,72.56
2022-09-15T12:00:14.808Z,72.30
2022-09-15T12:03:00.412Z,71.86
2022-09-15T12:05:37.720Z,70.97
2022-09-15T12:08:32.581Z,70.46
2022-09-15T12:11:03.464Z,70.01
2022-09-15T12:13:31.673Z,69.79
2022-09-15T12:16:03.983Z,69.75
2022-09-15T12:18:41.944Z,69.77
2022-09-15T12:21:22.912Z,69.50
2022-09-15T12:24:03.039Z,69.58
2022-09-15T12:26:33.091Z,69.23
2022-09-15T12:29:04.376Z,69.59
2022-09-15T12:31:41.317Z,69.04
2022-09-15T12:34:35.417Z,68.85
2022-09-15T12:37:15.665Z,68.62
2022-09-15T12:39:43.728Z,68.23
2022-09-15T12:42:10.571Z,68.16
2022-09-15T12:45:04.083Z,67.72
2022-09-15T12:47:36.170Z,67.59
2022-09-15T12:50:29.452Z,67.31
2022-09-15T12:53:12.867Z,67.31
2022-09-15T12:55:53.340Z,67.22
2022-09-15T12:58:43.410Z,67.22
2022-09-15T13:01:19.808Z,67.48
2022-09-15T13:03:47.573Z,67.63
2022-09-15T13:06:21.747Z,67.38
2022-09-15T13:08:55.561Z,67.52
2022-09-15T13:11:37.679Z,67.68
2022-09-15T13:14:06.977Z,67.35
2022-09-15T13:16:48.899Z,67.32
2022-09-15T13:19:50.273Z,67.66
2022-09-15T13:22:27.888Z,67.83
2022-09-15T13:25:00.830Z,68.13
2022-09-15T13:27:51.973Z,68.21
2022-09-15T13:30:21.659Z,68.36
2022-09-15T13:33:10.277Z,68.18
2022-09-15T13:35:52.284Z,68.53
2022-09-15T13:38:31.822Z,68.58
2022-09-15T13:41:56.610Z,68.15
2022-09-15T13:45:02.207Z,68.32
2022-09-15T13:47:51.574Z,68.61
2022-09-15T13:50:31.445Z,68.43
2022-09-15T13:53:32.508Z,68.47
2022-09-15T13:56:09.766Z,68.49
2022-09-15T14:01:28.757Z,67.91
2022-09-15T14:04:09.442Z,67.90
2022-09-15T14:06:43.037Z,67.37
2022-09-15T14:09:16.291Z,67.64
2022-09-15T14:11:47.303Z,67.48
2022-09-15T14:14:41.576Z,67.48
2022-09-15T14:17:49.561Z,67.61
2022-09-15T14:20:26.854Z,67.86
2022-09-15T14:22:54.491Z,68.07
2022-09-15T14:25:22.228Z,68.08
2022-09-15T14:27:51.941Z,67.91
2022-09-15T14:30:21.830Z,67.95
2022-09-15T14:32:53.711Z,68.40
2022-09-15T14:35:31.806Z,68.35
2022-09-15T14:38:00.111Z,68.54
2022-09-15T14:40:35.263Z,68.13
2022-09-15T14:43:03.184Z,68.39
2022-09-15T14:48:30.248Z,68.14
2022-09-15T14:51:02.899Z,68.59
2022-09-15T14:53:35.491Z,68.12
2022-09-15T14:56:20.184Z,67.91
2022-09-15T14:58:52.585Z,67.62
2022-09-15T15:01:34.494Z,67.97
2022-09-15T15:04:28.296Z,67.84
2022-09-15T15:07:22.848Z,67.86
2022-09-15T15:10:00.224Z,67.94
2022-09-15T15:12:49.689Z,67.62
2022-09-15T15:15:17.611Z,68.09
2022-09-15T15:17:49.515Z,67.95
2022-09-15T15:20:25.639Z,68.53
2022-09-15T15:23:37.311Z,68.45
2022-09-15T15:26:39.813Z,69.03
2022-09-15T15:29:44.696Z,68.95
2022-09-15T15:32:17.217Z,69.51
2022-09-15T15:34:52.977Z,69.47
2022-09-15T15:37:48.062Z,69.79
2022-09-15T15:40:18.958Z,69.73
2022-09-15T15:43:16.320Z,69.49
2022-09-15T15:46:03.712Z,69.72
2022-09-15T15:48:37.963Z,69.81
2022-09-15T15:51:06.838Z,70.23
2022-09-15T15:53:34.557Z,70.13
2022-09-15T15:56:01.685Z,70.28
2022-09-15T15:58:28.576Z,70.41
2022-09-15T16:00:57.004Z,70.77
2022-09-15T16:03:27.527Z,70.88
2022-09-15T16:06:00.241Z,71.04
2022-09-15T16:08:31.446Z,71.12
2022-09-15T16:11:01.010Z,71.42
2022-09-15T16:13:28.825Z,71.71
2022-09-15T16:15:57.971Z,71.82
2022-09-15T16:18:31.668Z,71.93
2022-09-15T16:20:58.560Z,72.17
2022-09-15T16:23:25.282Z,72.30
2022-09-15T16:25:54.780Z,72.26
2022-09-15T16:28:21.644Z,72.33
2022-09-15T16:30:50.983Z,72.12
2022-09-15T16:33:19.410Z,72.45
2022-09-15T16:35:51.948Z,72.55
2022-09-15T16:38:20.349Z,72.40
2022-09-15T16:40:51.219Z,72.72
2022-09-15T16:43:21.026Z,72.91
2022-09-15T16:45:48.605Z,72.64
2022-09-15T16:48:15.796Z,72.85
2022-09-15T16:50:56.025Z,72.95
2022-09-15T16:53:31.119Z,72.86
2022-09-15T16:55:58.094Z,73.04
2022-09-15T16:58:24.914Z,73.00
2022-09-15T17:00:52.852Z,73.44
2022-09-15T17:03:25.079Z,73.38
2022-09-15T17:05:54.605Z,73.37
2022-09-15T17:08:29.490Z,73.73
2022-09-15T17:10:58.445Z,73.62
2022-09-15T17:13:30.312Z,73.81
2022-09-15T17:15:59.002Z,73.78
2022-09-15T17:18:26.197Z,73.35
2022-09-15T17:20:53.616Z,73.28
2022-09-15T17:23:20.417Z,73.28
2022-09-15T17:25:54.045Z,72.97
2022-09-15T17:28:23.090Z,73.09
2022-09-15T17:30:53.483Z,73.01
2022-09-15T17:33:20.881Z,73.43
2022-09-15T17:35:48.907Z,73.14
2022-09-15T17:38:16.600Z,73.50
2022-09-15T17:40:43.487Z,73.10
2022-09-15T17:43:16.800Z,73.40
2022-09-15T17:45:44.111Z,73.58
2022-09-15T17:48:12.115Z,73.56
2022-09-15T17:50:40.093Z,73.71
2022-09-15T17:53:13.444Z,73.51
2022-09-15T17:55:40.826Z,73.54
2022-09-15T17:58:07.646Z,73.53
2022-09-15T18:00:37.434Z,73.75
2022-09-15T18:03:25.014Z,73.66
2022-09-15T18:05:52.335Z,73.66
2022-09-15T18:08:22.383Z,74.21
2022-09-15T18:10:49.508Z,73.84
2022-09-15T18:13:21.759Z,74.10
2022-09-15T18:15:51.765Z,74.40
2022-09-15T18:18:21.584Z,74.30
2022-09-15T18:20:49.955Z,74.19
2022-09-15T18:23:18.936Z,74.63
2022-09-15T18:25:49.455Z,74.29
2022-09-15T18:28:17.504Z,74.71
2022-09-15T18:30:46.806Z,74.37
2022-09-15T18:33:24.981Z,74.81
2022-09-15T18:35:54.713Z,74.60
2022-09-15T18:38:22.477Z,74.49
2022-09-15T18:40:55.456Z,74.57
2022-09-15T18:43:25.997Z,74.46
2022-09-15T18:45:57.625Z,74.45
2022-09-15T18:48:27.291Z,74.25
2022-09-15T18:50:54.323Z,74.13
2022-09-15T18:53:21.255Z,74.10
2022-09-15T18:55:51.226Z,74.28
2022-09-15T18:58:19.359Z,74.13
2022-09-15T19:00:46.470Z,73.73
2022-09-15T19:03:15.507Z,73.72
2022-09-15T19:05:43.295Z,74.12
2022-09-15T19:08:11.537Z,74.58
2022-09-15T19:10:41.669Z,74.21
2022-09-15T19:13:10.583Z,74.67
2022-09-15T19:15:39.561Z,74.14
2022-09-15T19:18:06.372Z,73.88
2022-09-15T19:20:33.224Z,73.90
2022-09-15T19:23:00.004Z,73.91
2022-09-15T19:25:27.151Z,73.89
2022-09-15T19:27:53.966Z,73.88
2022-09-15T19:30:20.861Z,73.75
2022-09-15T19:32:47.837Z,73.63
2022-09-15T19:35:14.909Z,73.69
2022-09-15T19:37:42.462Z,73.60
2022-09-15T19:40:13.483Z,73.32
2022-09-15T19:42:41.955Z,73.70
2022-09-15T19:45:11.021Z,73.44
2022-09-15T19:47:38.283Z,73.63
2022-09-15T19:50:07.310Z,73.81
2022-09-15T19:52:34.243Z,73.92
2022-09-15T19:55:01.105Z,73.49
2022-09-15T19:57:28.062Z,73.61
2022-09-15T19:59:55.120Z,73.31
2022-09-15T20:02:22.092Z,73.30
2022-09-15T20:04:50.555Z,73.29
2022-09-15T20:07:21.381Z,73.24
2022-09-15T20:09:48.270Z,73.35
2022-09-15T20:12:17.005Z,73.17
2022-09-15T20:14:43.852Z,73.44
2022-09-15T20:17:11.214Z,73.77
2022-09-15T20:19:38.510Z,73.54
2022-09-15T20:22:05.467Z,73.56
2022-09-15T20:24:32.328Z,73.55
2022-09-15T20:26:59.401Z,73.30
2022-09-15T20:29:26.437Z,73.39
2022-09-15T20:31:54.030Z,73.21
2022-09-15T20:34:20.916Z,73.44
2022-09-15T20:36:50.730Z,73.35
2022-09-15T20:39:19.538Z,73.36
2022-09-15T20:41:46.561Z,73.56
2022-09-15T20:44:16.117Z,73.32
2022-09-15T20:46:43.334Z,73.52
2022-09-15T20:49:11.348Z,73.48
2022-09-15T20:51:41.014Z,73.41
2022-09-15T20:54:08.357Z,73.48
2022-09-15T20:56:35.629Z,73.59
2022-09-15T20:59:04.457Z,73.02
2022-09-15T21:01:36.807Z,73.48
2022-09-15T21:04:05.493Z,73.59
2022-09-15T21:06:33.036Z,73.46
2022-09-15T21:09:00.540Z,73.66
2022-09-15T21:11:28.862Z,73.51
2022-09-15T21:13:56.819Z,73.62
2022-09-15T21:16:26.472Z,73.33
2022-09-15T21:18:54.207Z,73.34
2022-09-15T21:21:27.070Z,73.11
2022-09-15T21:24:04.082Z,73.19
2022-09-15T21:26:33.943Z,73.05
2022-09-15T21:29:01.285Z,72.96
2022-09-15T21:31:31.037Z,73.31
2022-09-15T21:33:59.287Z,72.95
2022-09-15T21:36:29.798Z,73.05
2022-09-15T21:38:58.293Z,72.88
2022-09-15T21:41:29.236Z,72.93
2022-09-15T21:43:58.303Z,72.81
2022-09-15T21:46:30.707Z,72.84
2022-09-15T21:48:59.131Z,72.76
2022-09-15T21:51:28.112Z,72.75
2022-09-15T21:53:56.467Z,72.83
2022-09-15T21:56:24.577Z,72.86
2022-09-15T21:58:51.634Z,73.01
2022-09-15T22:01:21.738Z,73.03
2022-09-15T22:03:50.762Z,73.20
2022-09-15T22:06:19.386Z,73.09
2022-09-15T22:08:49.090Z,73.38
2022-09-15T22:11:15.985Z,73.34
2022-09-15T22:13:44.983Z,73.64
2022-09-15T22:16:14.970Z,73.41
2022-09-15T22:18:42.717Z,73.56
2022-09-15T22:21:20.615Z,73.67
2022-09-15T22:23:49.038Z,73.72
2022-09-15T22:26:21.257Z,73.85
2022-09-15T22:28:48.731Z,73.97
2022-09-15T22:31:16.923Z,73.90
2022-09-15T22:33:44.393Z,74.39
2022-09-15T22:36:16.300Z,74.46
2022-09-15T22:38:46.225Z,74.49
2022-09-15T22:41:15.371Z,74.50
2022-09-15T22:43:43.668Z,74.41
2022-09-15T22:46:11.957Z,74.66
2022-09-15T22:48:43.281Z,74.75
2022-09-15T22:51:12.175Z,74.41
2022-09-15T22:53:39.448Z,74.77
2022-09-15T22:56:23.313Z,74.76
2022-09-15T22:58:50.419Z,74.94
2022-09-15T23:01:22.584Z,74.78
2022-09-15T23:03:54.672Z,74.97
2022-09-15T23:06:22.991Z,74.93
2022-09-15T23:08:55.103Z,75.06
2022-09-15T23:11:22.835Z,75.42
2022-09-15T23:13:50.135Z,75.26
2022-09-15T23:16:17.331Z,74.99
2022-09-15T23:18:44.406Z,75.34
2022-09-15T23:21:12.998Z,75.10
2022-09-15T23:23:43.143Z,75.26
2022-09-15T23:26:12.283Z,75.31
2022-09-15T23:28:39.349Z,75.81
2022-09-15T23:31:07.295Z,75.80
2022-09-15T23:33:34.836Z,75.37
2022-09-15T23:36:03.442Z,75.47
2022-09-15T23:38:30.914Z,75.59
2022-09-15T23:40:57.810Z,75.70
2022-09-15T23:43:24.713Z,75.65
2022-09-15T23:45:51.627Z,75.86
2022-09-15T23:48:18.582Z,75.80
2022-09-15T23:50:45.868Z,76.23
2022-09-15T23:53:12.768Z,75.93
2022-09-15T23:55:39.647Z,76.21
2022-09-15T23:58:06.588Z,75.60
